This is the latest recevied weather packets stored in our database for station/object DB0NH-2. If no packets are shown the sender has not sent any weather packets the latest 1 day(s).
| Time | Temp. | Humidity | Pressure | Rain* | Wind** | Luminosity | Snow |
|---|---|---|---|---|---|---|---|
| 1778001368 | 12.22° C | 95% | 1006.6 hPa | 5.33 mm | 0.45 m/s, 322° | 16 W/m² | - |
| 1778000768 | 12.22° C | 95% | 1006.9 hPa | 5.08 mm | 0.45 m/s, 301° | 7 W/m² | - |
| 1778000168 | 12.78° C | 95% | 1007.2 hPa | 4.57 mm | 1.34 m/s, 271° | 5 W/m² | - |
| 1777999568 | 12.78° C | 94% | 1007.2 hPa | 3.56 mm | 1.34 m/s, 280° | 7 W/m² | - |
| 1777998968 | 12.78° C | 93% | 1007.2 hPa | 2.03 mm | 0.89 m/s, 254° | 5 W/m² | - |
| 1777998368 | 13.33° C | 91% | 1007.3 hPa | 1.02 mm | 0.89 m/s, 288° | 8 W/m² | - |
| 1777997768 | 13.89° C | 86% | 1006.8 hPa | 0.51 mm | 0.89 m/s, 285° | 15 W/m² | - |
| 1777997168 | 14.44° C | 80% | 1006.3 hPa | 0.25 mm | 0 m/s | 22 W/m² | - |
| 1777996568 | 15° C | 74% | 1006.3 hPa | 0 mm | 1.34 m/s, 55° | 19 W/m² | - |
| 1777995968 | 15° C | 71% | 1006.2 hPa | 0 mm | 1.79 m/s, 65° | 25 W/m² | - |
| 1777995368 | 16.11° C | 67% | 1006.1 hPa | 0 mm | 4.02 m/s, 125° | 65 W/m² | - |
| 1777994773 | 17.78° C | 64% | 1005.8 hPa | 0 mm | 1.79 m/s, 59° | 97 W/m² | - |
| 1777994168 | 18.89° C | 60% | 1006 hPa | 0 mm | 1.34 m/s, 51° | 83 W/m² | - |
| 1777993568 | 18.89° C | 57% | 1006 hPa | 0 mm | 0.45 m/s, 31° | 93 W/m² | - |
| 1777992968 | 19.44° C | 56% | 1006.1 hPa | 0 mm | 0.45 m/s, 32° | 135 W/m² | - |
| 1777992368 | 19.44° C | 56% | 1006.1 hPa | 0 mm | 0.89 m/s, 39° | 131 W/m² | - |
| 1777991768 | 19.44° C | 55% | 1006.2 hPa | 0 mm | 1.34 m/s, 40° | 126 W/m² | - |
| 1777991168 | 19.44° C | 54% | 1006.4 hPa | 0 mm | 1.79 m/s, 49° | 100 W/m² | - |
| 1777990568 | 20° C | 52% | 1006.4 hPa | 0 mm | 1.79 m/s, 47° | 149 W/m² | - |
| 1777989968 | 20° C | 54% | 1006.6 hPa | 0 mm | 2.24 m/s, 44° | 249 W/m² | - |
| 1777989368 | 20° C | 54% | 1006.6 hPa | 0 mm | 0.89 m/s, 28° | 348 W/m² | - |
| 1777988768 | 20° C | 54% | 1006.7 hPa | 0 mm | 1.79 m/s, 40° | 314 W/m² | - |
| 1777988168 | 20.56° C | 52% | 1006.9 hPa | 0 mm | 1.34 m/s, 44° | 430 W/m² | - |
| 1777987568 | 20.56° C | 53% | 1007 hPa | 0 mm | 1.34 m/s, 45° | 753 W/m² | - |
| 1777986968 | 20.56° C | 53% | 1007.2 hPa | 0 mm | 0.89 m/s, 39° | 482 W/m² | - |
* Rain latest hour (hover to see other rain measurements)
** Current wind speed in m/s (hover to see current wind gust speed)